Time;durP1;ratioP1;P1;durP2;ratioP2;P2;SDS_P1;SDS_P2;PMS_P1;PMS_P2;Temp;Humidity;BMP_temperature;BMP_pressure;BME280_temperature;BME280_humidity;BME280_pressure;Samples;Min_cycle;Max_cycle;Signal;HPM_P1;HPM_P2
2022/10/22 13:09:59;;;;;;;15.50;7.20;;;;;;;22.79;31.95;101032.13;102057;1310;601562;-83
2022/10/22 13:12:35;;;;;;;12.30;8.10;;;;;;;22.57;32.56;101028.06;104278;1280;59106;-80
2022/10/22 13:15:26;;;;;;;13.40;7.60;;;;;;;22.19;32.96;101027.72;104912;1274;57377;-81
2022/10/22 13:18:04;;;;;;;14.50;7.30;;;;;;;21.82;33.65;101031.08;104998;1270;71287;-80
2022/10/22 13:20:36;;;;;;;12.80;6.90;;;;;;;21.21;35.12;101030.50;104960;1274;63320;-79
2022/10/22 13:23:05;;;;;;;12.30;7.20;;;;;;;21.12;35.55;101028.88;104767;1276;279224;-79
2022/10/22 13:25:38;;;;;;;14.10;7.20;;;;;;;21.01;35.55;101024.97;105112;1269;72900;-80
2022/10/22 13:28:20;;;;;;;16.00;7.50;;;;;;;20.70;36.54;101017.36;105018;1269;61505;-79
2022/10/22 13:30:58;;;;;;;13.00;6.90;;;;;;;20.35;37.50;101015.16;104967;1274;59999;-81
2022/10/22 13:33:52;;;;;;;13.30;7.40;;;;;;;20.05;37.96;101017.09;105109;1280;61219;-82
2022/10/22 13:36:22;;;;;;;15.90;7.60;;;;;;;19.79;38.60;101020.53;105117;1276;61539;-79
2022/10/22 13:38:51;;;;;;;16.70;7.80;;;;;;;19.59;39.16;101021.17;105110;1271;60872;-81
2022/10/22 13:41:30;;;;;;;16.60;9.10;;;;;;;19.40;39.55;101022.30;105095;1269;73100;-79
2022/10/22 13:43:59;;;;;;;20.10;9.30;;;;;;;19.10;39.99;101017.63;105147;1273;59096;-80
2022/10/22 13:46:28;;;;;;;17.50;8.80;;;;;;;18.89;40.72;101021.02;105165;1269;59135;-84
2022/10/22 13:48:58;;;;;;;19.00;9.80;;;;;;;18.71;41.29;101023.41;105195;1272;72568;-86
2022/10/22 13:51:36;;;;;;;19.30;9.90;;;;;;;18.65;41.58;101023.30;105178;1279;60684;-77
2022/10/22 13:54:13;;;;;;;16.70;10.30;;;;;;;18.43;42.05;101024.33;105287;1274;70438;-84
2022/10/22 13:56:42;;;;;;;22.30;11.90;;;;;;;18.19;42.43;101023.34;105171;1270;63044;-86
2022/10/22 13:59:11;;;;;;;23.60;10.00;;;;;;;17.82;43.45;101027.30;105007;1280;60446;-84
2022/10/22 14:01:40;;;;;;;23.80;10.20;;;;;;;17.70;43.79;101028.67;105062;1266;61470;-85
2022/10/22 14:04:13;;;;;;;25.90;9.90;;;;;;;17.55;44.08;101021.67;105105;1270;62824;-84
2022/10/22 14:06:42;;;;;;;18.40;9.50;;;;;;;17.22;44.90;101017.77;105173;1281;62608;-88
2022/10/22 14:09:14;;;;;;;21.20;10.50;;;;;;;17.24;45.16;101016.52;105658;1269;59997;-86
2022/10/22 14:11:45;;;;;;;16.00;9.40;;;;;;;17.22;45.28;101018.83;106207;1279;63504;-87
2022/10/22 14:14:15;;;;;;;15.40;9.00;;;;;;;17.20;44.96;101017.25;105540;1272;58479;-84
2022/10/22 14:16:45;;;;;;;16.90;8.70;;;;;;;17.09;45.09;101014.34;105247;1279;60419;-84
2022/10/22 14:19:16;;;;;;;18.50;9.20;;;;;;;17.03;44.64;101004.33;105125;1271;72103;-84
2022/10/22 14:21:47;;;;;;;15.00;8.80;;;;;;;16.78;46.14;101000.55;105045;1271;60945;-78
2022/10/22 14:24:16;;;;;;;16.50;8.50;;;;;;;16.43;47.15;100999.39;105365;1269;59226;-82
2022/10/22 14:26:45;;;;;;;16.70;8.90;;;;;;;16.29;47.48;100998.17;105043;1276;73795;-82
2022/10/22 14:29:13;;;;;;;16.00;9.10;;;;;;;16.19;47.69;100995.11;105169;1279;60737;-88
2022/10/22 14:31:43;;;;;;;20.10;9.20;;;;;;;16.09;48.05;100990.86;105463;1271;57792;-81
2022/10/22 14:34:15;;;;;;;15.00;9.20;;;;;;;16.02;47.41;100987.30;105267;1263;61393;-75
2022/10/22 14:36:44;;;;;;;18.00;9.00;;;;;;;15.71;49.15;100992.73;105227;1265;70587;-84
2022/10/22 14:39:13;;;;;;;23.80;9.30;;;;;;;15.57;49.75;100997.16;105140;1269;70985;-87
2022/10/22 14:41:43;;;;;;;17.60;9.40;;;;;;;15.48;49.91;101001.96;104862;1274;75082;-80
2022/10/22 14:44:12;;;;;;;15.20;8.80;;;;;;;15.42;50.04;101006.38;105029;1267;58413;-83
2022/10/22 14:46:43;;;;;;;17.90;9.40;;;;;;;15.33;50.29;101004.17;105219;1267;58576;-91
2022/10/22 14:49:12;;;;;;;20.60;9.90;;;;;;;15.20;51.23;100999.14;105297;1268;72248;-89
2022/10/22 14:51:41;;;;;;;19.30;10.50;;;;;;;15.06;51.67;101002.45;105651;1264;71330;-89
2022/10/22 14:54:10;;;;;;;16.20;10.00;;;;;;;15.00;51.56;100996.71;105727;1274;69517;-83
2022/10/22 14:56:38;;;;;;;20.10;10.00;;;;;;;14.88;52.07;100991.11;105484;1265;74092;-89
2022/10/22 14:59:08;;;;;;;26.30;11.00;;;;;;;14.80;52.72;100983.98;105518;1258;59667;-88
2022/10/22 15:01:41;;;;;;;20.50;10.20;;;;;;;14.73;52.81;100981.65;105625;1266;59054;-89
2022/10/22 15:04:20;;;;;;;20.10;9.70;;;;;;;14.64;53.06;100978.92;105284;1266;71066;-87
2022/10/22 15:06:55;;;;;;;15.20;9.20;;;;;;;14.58;53.20;100980.82;105651;1274;61983;-82
2022/10/22 15:09:23;;;;;;;18.50;9.50;;;;;;;14.54;53.24;100975.38;105658;1270;70254;-85
2022/10/22 15:11:52;;;;;;;17.20;9.40;;;;;;;14.47;53.39;100974.74;105472;1266;62436;-79
2022/10/22 15:14:21;;;;;;;19.20;9.80;;;;;;;14.42;53.81;100975.69;105545;1276;60211;-83
2022/10/22 15:16:49;;;;;;;19.30;9.90;;;;;;;14.35;54.02;100969.95;105518;1268;60886;-87
2022/10/22 15:19:18;;;;;;;18.00;8.70;;;;;;;14.31;54.20;100975.91;105371;1274;62583;-79
2022/10/22 15:21:47;;;;;;;12.40;8.10;;;;;;;14.27;54.53;100972.86;105494;1274;61604;-84
2022/10/22 15:24:16;;;;;;;20.90;9.00;;;;;;;14.22;54.98;100975.59;105536;1266;70386;-83
2022/10/22 15:26:44;;;;;;;20.00;9.10;;;;;;;14.15;54.78;100982.45;105519;1277;73089;-82
2022/10/22 15:29:13;;;;;;;23.50;11.00;;;;;;;14.12;55.33;100991.69;105394;1270;58949;-80
2022/10/22 15:31:51;;;;;;;18.30;8.50;;;;;;;14.09;55.06;100990.38;105374;1275;60405;-82
2022/10/22 15:34:28;;;;;;;17.00;9.00;;;;;;;14.06;54.75;100990.96;105343;1260;72434;-83
2022/10/22 15:37:04;;;;;;;18.60;9.40;;;;;;;13.99;55.03;100990.82;105233;1277;71465;-83
2022/10/22 15:39:33;;;;;;;18.80;9.30;;;;;;;13.92;54.61;100992.11;105342;1270;69850;-82
2022/10/22 15:42:02;;;;;;;18.40;10.30;;;;;;;13.84;54.75;100990.66;105287;1268;73396;-80
2022/10/22 15:44:31;;;;;;;15.60;8.80;;;;;;;13.76;54.80;100994.58;105271;1269;60691;-81
2022/10/22 15:47:03;;;;;;;23.40;10.30;;;;;;;13.71;54.20;100997.30;105351;1274;59090;-83
2022/10/22 15:49:36;;;;;;;20.10;10.10;;;;;;;13.66;55.15;100998.98;105427;1273;62041;-85
2022/10/22 15:52:05;;;;;;;;;;;;;;;13.60;55.13;100997.17;105231;1268;60841;-86
2022/10/22 15:54:34;;;;;;;20.10;10.60;;;;;;;13.53;55.42;101002.24;105307;1269;69649;-83
2022/10/22 15:57:07;;;;;;;20.60;9.50;;;;;;;13.46;55.46;101000.02;105256;1270;74145;-84
2022/10/22 15:59:36;;;;;;;21.20;10.60;;;;;;;13.41;56.58;100999.91;105289;1265;61531;-80
2022/10/22 16:02:06;;;;;;;21.20;10.70;;;;;;;13.32;56.99;100988.94;105333;1271;61074;-85
2022/10/22 16:04:34;;;;;;;24.20;14.40;;;;;;;13.30;57.46;100997.61;105370;1267;62949;-82
2022/10/22 16:07:03;;;;;;;35.40;18.60;;;;;;;13.23;57.70;100996.40;105216;1276;62003;-89
2022/10/22 16:09:32;;;;;;;36.50;18.50;;;;;;;13.17;58.95;100994.73;105279;1265;70882;-89
2022/10/22 16:12:01;;;;;;;31.10;16.20;;;;;;;13.12;58.67;100997.63;105472;1265;74072;-86
2022/10/22 16:14:29;;;;;;;36.80;19.80;;;;;;;13.09;59.20;100999.05;105458;1276;62002;-83
2022/10/22 16:16:58;;;;;;;46.20;22.80;;;;;;;13.07;58.70;101005.58;105579;1275;57412;-83
2022/10/22 16:19:27;;;;;;;34.60;17.80;;;;;;;13.00;60.15;101012.67;105489;1267;69924;-83
2022/10/22 16:21:58;;;;;;;30.50;18.40;;;;;;;12.95;59.71;101013.98;105287;1273;61959;-82
2022/10/22 16:24:27;;;;;;;33.50;15.30;;;;;;;12.90;59.88;101012.60;105324;1266;71339;-81
2022/10/22 16:26:57;;;;;;;38.50;21.40;;;;;;;12.84;60.06;101008.88;105339;1269;66063;-87
2022/10/22 16:29:27;;;;;;;44.20;22.90;;;;;;;12.75;61.06;101001.94;105290;1272;60810;-88
2022/10/22 16:31:56;;;;;;;42.90;23.60;;;;;;;12.74;60.92;101007.04;105304;1272;59034;-87
2022/10/22 16:34:26;;;;;;;49.20;24.40;;;;;;;12.70;61.61;101010.65;105793;1271;61320;-85
2022/10/22 16:36:55;;;;;;;47.90;23.90;;;;;;;12.65;61.86;101011.39;105846;1264;71403;-83
2022/10/22 16:39:24;;;;;;;50.90;25.90;;;;;;;12.63;61.74;101012.40;105644;1276;60835;-85
2022/10/22 16:41:53;;;;;;;50.10;22.20;;;;;;;12.58;62.99;101014.20;105242;1272;72997;-80
2022/10/22 16:44:22;;;;;;;49.10;22.60;;;;;;;12.53;62.48;101011.60;105364;1268;60469;-83
2022/10/22 16:46:51;;;;;;;38.90;21.30;;;;;;;12.48;62.40;101009.00;105219;1268;59200;-85
2022/10/22 16:49:20;;;;;;;36.80;21.70;;;;;;;12.44;63.69;101008.64;105480;1270;72677;-85
2022/10/22 16:51:48;;;;;;;45.50;22.70;;;;;;;12.40;63.67;101005.73;105654;1267;71145;-84
2022/10/22 16:54:17;;;;;;;39.70;19.90;;;;;;;12.38;63.74;101001.39;106159;1262;69501;-86
2022/10/22 17:03:01;;;;;;;28.80;14.00;;;;;;;12.39;63.47;101010.92;102121;1303;600607;-83
2022/10/22 17:05:30;;;;;;;24.50;14.20;;;;;;;12.35;63.70;101005.45;105215;1277;61502;-87
2022/10/22 17:07:59;;;;;;;26.40;15.80;;;;;;;12.34;63.85;101002.58;105393;1271;57582;-83
2022/10/22 17:10:28;;;;;;;32.00;15.90;;;;;;;12.30;64.63;100996.73;105588;1273;70030;-86
2022/10/22 17:12:56;;;;;;;24.00;13.70;;;;;;;12.28;64.81;100996.94;105356;1260;71893;-83
2022/10/22 17:15:25;;;;;;;32.90;14.50;;;;;;;12.26;64.37;100995.98;105417;1274;60002;-84
2022/10/22 17:17:54;;;;;;;24.90;15.30;;;;;;;12.25;64.81;100994.52;105150;1270;71575;-83
2022/10/22 17:20:23;;;;;;;28.40;13.80;;;;;;;12.22;64.74;100985.11;105727;1257;58722;-84
2022/10/22 17:22:52;;;;;;;23.50;13.50;;;;;;;12.21;65.03;100987.30;105720;1261;61125;-84
2022/10/22 17:25:42;;;;;;;25.50;14.20;;;;;;;12.20;64.77;100991.52;105823;1266;61181;-86
2022/10/22 17:28:15;;;;;;;24.90;12.00;;;;;;;12.20;65.17;100994.18;105815;1270;72149;-84
2022/10/22 17:30:44;;;;;;;22.00;11.90;;;;;;;12.20;63.75;100996.45;105543;1266;70229;-80
2022/10/22 17:33:13;;;;;;;23.60;13.60;;;;;;;12.21;62.81;100994.42;105558;1271;62871;-86
2022/10/22 17:35:42;;;;;;;20.70;12.30;;;;;;;12.19;65.02;100992.45;105683;1267;59081;-84
2022/10/22 17:38:21;;;;;;;23.60;13.30;;;;;;;12.16;65.09;100985.42;105722;1271;60256;-85
2022/10/22 17:40:51;;;;;;;23.20;13.70;;;;;;;12.22;64.90;100989.47;105671;1261;61850;-88
2022/10/22 17:43:26;;;;;;;30.40;16.00;;;;;;;12.23;65.03;100987.68;105584;1267;60881;-87
2022/10/22 17:46:26;;;;;;;36.00;16.50;;;;;;;12.23;65.29;100985.42;105643;1263;70410;-83
2022/10/22 17:49:05;;;;;;;25.50;15.70;;;;;;;12.19;64.13;100981.48;105542;1266;72406;-87
2022/10/22 17:51:41;;;;;;;24.50;14.00;;;;;;;12.18;65.04;100984.86;105456;1271;62814;-86
2022/10/22 17:54:12;;;;;;;22.50;13.10;;;;;;;12.16;65.61;100984.38;105639;1269;59024;-84
2022/10/22 17:56:40;;;;;;;22.90;12.50;;;;;;;12.14;65.31;100979.95;105628;1262;61281;-88
2022/10/22 17:59:19;;;;;;;25.40;13.80;;;;;;;12.13;64.08;100979.84;105839;1260;69658;-88
2022/10/22 18:01:48;;;;;;;25.70;12.70;;;;;;;12.11;65.31;100981.94;105691;1262;70722;-85
2022/10/22 18:04:19;;;;;;;19.20;12.00;;;;;;;12.08;66.14;100981.96;105774;1259;74041;-88
2022/10/22 18:06:48;;;;;;;20.30;12.60;;;;;;;12.06;66.37;100983.86;105742;1263;57391;-86
2022/10/22 18:09:18;;;;;;;25.80;14.30;;;;;;;12.03;66.98;100984.98;105723;1259;59666;-87
2022/10/22 18:11:50;;;;;;;22.40;13.80;;;;;;;11.98;67.35;100979.02;105802;1257;62590;-88
2022/10/22 18:14:22;;;;;;;22.40;11.70;;;;;;;11.93;67.88;100980.95;105910;1266;60809;-89
2022/10/22 18:17:00;;;;;;;43.70;23.70;;;;;;;11.89;68.01;100977.98;105672;1261;59963;-83
2022/10/22 18:19:29;;;;;;;26.70;13.70;;;;;;;11.87;68.32;100976.23;105700;1263;63167;-85
2022/10/22 18:21:59;;;;;;;24.40;13.70;;;;;;;11.85;68.34;100974.56;105609;1263;61239;-85
2022/10/22 18:24:36;;;;;;;25.80;13.90;;;;;;;11.88;68.23;100973.89;105794;1265;60681;-85
2022/10/22 18:27:05;;;;;;;25.30;14.70;;;;;;;11.90;67.92;100971.59;105807;1271;71345;-88
2022/10/22 18:29:34;;;;;;;32.30;14.10;;;;;;;11.94;67.78;100968.19;105650;1269;61718;-87
2022/10/22 18:32:04;;;;;;;22.10;13.40;;;;;;;11.96;68.50;100961.23;105807;1263;70412;-89
2022/10/22 18:34:40;;;;;;;20.60;12.70;;;;;;;11.96;68.12;100957.02;105821;1265;63472;-83
2022/10/22 18:37:11;;;;;;;21.20;12.70;;;;;;;11.94;68.35;100946.71;105566;1264;60527;-87
2022/10/22 18:39:40;;;;;;;23.00;12.90;;;;;;;11.91;68.43;100940.80;105690;1260;60119;-86
2022/10/22 18:42:08;;;;;;;27.70;15.10;;;;;;;11.93;67.29;100941.01;105631;1263;73650;-86
2022/10/22 18:44:37;;;;;;;25.10;12.90;;;;;;;11.97;67.15;100943.71;105852;1260;71687;-84
2022/10/22 18:47:07;;;;;;;27.50;13.00;;;;;;;12.07;65.76;100947.48;105776;1263;59548;-85
2022/10/22 18:49:36;;;;;;;24.20;12.00;;;;;;;12.15;65.38;100948.79;105725;1263;72534;-83
2022/10/22 18:52:05;;;;;;;23.20;12.50;;;;;;;12.22;66.02;100948.48;105650;1266;60427;-86
2022/10/22 18:54:34;;;;;;;24.50;13.60;;;;;;;12.26;65.24;100949.71;105697;1258;57237;-82
2022/10/22 18:57:03;;;;;;;27.30;15.00;;;;;;;12.33;63.28;100949.15;105888;1257;72504;-83
2022/10/22 18:59:32;;;;;;;22.90;12.30;;;;;;;12.39;63.44;100944.52;105730;1264;60931;-84
2022/10/22 19:02:01;;;;;;;25.60;12.60;;;;;;;12.43;64.01;100941.90;105699;1269;69270;-84
2022/10/22 19:04:35;;;;;;;17.80;11.60;;;;;;;12.45;64.26;100940.41;105842;1262;62840;-84
2022/10/22 19:07:05;;;;;;;19.40;11.00;;;;;;;12.46;63.85;100943.95;105791;1260;59085;-83
2022/10/22 19:09:34;;;;;;;17.40;10.50;;;;;;;12.48;63.33;100950.66;105739;1263;62195;-84
2022/10/22 19:12:03;;;;;;;20.20;11.70;;;;;;;12.49;63.45;100952.17;105824;1266;62937;-84
2022/10/22 19:14:32;;;;;;;23.90;12.20;;;;;;;12.50;63.34;100951.90;105744;1270;70264;-77
2022/10/22 19:17:01;;;;;;;19.80;12.20;;;;;;;12.51;63.78;100946.25;105739;1260;70854;-80
2022/10/22 19:19:30;;;;;;;19.70;11.30;;;;;;;12.51;64.97;100949.95;105735;1263;62760;-77
2022/10/22 19:21:59;;;;;;;17.60;12.00;;;;;;;12.50;63.86;100952.28;105414;1262;60678;-79
2022/10/22 19:24:28;;;;;;;20.70;11.70;;;;;;;12.49;64.84;100958.10;105825;1266;60928;-78
2022/10/22 19:26:56;;;;;;;18.20;11.50;;;;;;;12.48;64.92;100954.69;105774;1262;62147;-80
2022/10/22 19:29:25;;;;;;;21.10;12.10;;;;;;;12.46;64.89;100955.70;105825;1260;62258;-78
2022/10/22 19:31:54;;;;;;;22.10;11.70;;;;;;;12.43;65.97;100955.40;105748;1267;59086;-76
2022/10/22 19:34:23;;;;;;;17.40;11.20;;;;;;;12.42;64.83;100956.21;105820;1263;64868;-76
2022/10/22 19:36:51;;;;;;;18.70;10.60;;;;;;;12.35;65.70;100960.55;105580;1270;57887;-78
2022/10/22 19:39:20;;;;;;;24.80;10.80;;;;;;;12.31;64.73;100968.70;105811;1266;59049;-79
2022/10/22 19:41:49;;;;;;;21.20;10.20;;;;;;;12.30;64.75;100968.98;105741;1258;62099;-79
2022/10/22 19:44:18;;;;;;;19.90;11.00;;;;;;;12.26;65.52;100961.80;105829;1267;63372;-77
2022/10/22 19:46:47;;;;;;;20.00;11.40;;;;;;;12.11;69.43;100960.45;105842;1261;60173;-84
2022/10/22 19:49:17;;;;;;;14.90;10.00;;;;;;;12.03;70.21;100957.02;105718;1263;62438;-75
2022/10/22 19:51:50;;;;;;;17.40;10.30;;;;;;;12.02;69.72;100956.94;105730;1262;57927;-75
2022/10/22 19:54:19;;;;;;;21.40;11.20;;;;;;;11.98;71.99;100954.11;105740;1271;60332;-76
2022/10/22 19:56:48;;;;;;;19.80;11.60;;;;;;;11.95;72.97;100953.45;105782;1263;72575;-75
2022/10/22 19:59:19;;;;;;;21.20;11.60;;;;;;;11.92;72.94;100943.55;106209;1271;71565;-74
2022/10/22 20:01:48;;;;;;;24.30;11.40;;;;;;;11.93;71.35;100945.92;106890;1258;69107;-81
2022/10/22 20:04:18;;;;;;;23.50;11.90;;;;;;;11.96;71.17;100947.45;105830;1271;62417;-79
2022/10/22 20:06:49;;;;;;;18.20;11.20;;;;;;;11.99;71.40;100950.73;105772;1262;61053;-78
2022/10/22 20:09:19;;;;;;;15.90;11.00;;;;;;;12.03;70.72;100958.95;105705;1271;61160;-78
2022/10/22 20:11:50;;;;;;;17.70;11.10;;;;;;;12.05;71.23;100967.04;105552;1271;63729;-77
2022/10/22 20:14:18;;;;;;;19.70;11.10;;;;;;;12.06;69.90;100971.67;105863;1262;71328;-76
2022/10/22 20:16:47;;;;;;;19.10;11.00;;;;;;;12.04;71.02;100972.02;105737;1260;60160;-74
2022/10/22 20:19:17;;;;;;;20.10;12.10;;;;;;;12.00;71.45;100970.88;105861;1260;72343;-74
2022/10/22 20:21:47;;;;;;;18.50;11.20;;;;;;;11.98;72.40;100972.75;105837;1263;63342;-77
2022/10/22 20:24:16;;;;;;;19.70;12.80;;;;;;;11.97;73.23;100975.27;105852;1263;58494;-76
2022/10/22 20:26:46;;;;;;;19.30;12.10;;;;;;;11.97;73.30;100968.50;105808;1259;70679;-76
2022/10/22 20:29:17;;;;;;;20.70;12.20;;;;;;;11.90;72.32;100948.75;105708;1258;69823;-79
2022/10/22 20:31:47;;;;;;;22.80;12.50;;;;;;;12.00;72.34;100958.35;105688;1266;60842;-75
2022/10/22 20:34:15;;;;;;;18.50;12.00;;;;;;;12.03;72.33;100959.86;105550;1265;74836;-79
2022/10/22 20:36:44;;;;;;;22.90;12.70;;;;;;;12.04;72.33;100958.51;105694;1259;59049;-78
2022/10/22 20:39:15;;;;;;;23.00;12.50;;;;;;;12.07;72.80;100958.16;105621;1263;57809;-85
2022/10/22 20:41:44;;;;;;;22.10;12.10;;;;;;;12.07;72.46;100957.27;105591;1265;71836;-79
2022/10/22 20:44:18;;;;;;;21.10;13.00;;;;;;;12.09;73.57;100958.20;105571;1269;61278;-78
2022/10/22 20:46:46;;;;;;;23.90;12.20;;;;;;;12.08;73.21;100956.86;105619;1267;69703;-78
2022/10/22 20:49:19;;;;;;;22.40;12.90;;;;;;;12.07;71.60;100950.98;105755;1267;63659;-79
2022/10/22 20:51:48;;;;;;;28.90;13.70;;;;;;;12.05;72.81;100953.92;105558;1269;61905;-80
2022/10/22 20:54:18;;;;;;;22.00;12.50;;;;;;;12.02;73.91;100955.77;105711;1262;59174;-81
2022/10/22 20:56:47;;;;;;;19.10;12.10;;;;;;;11.97;73.96;100955.55;105613;1263;71873;-78
2022/10/22 20:59:16;;;;;;;26.40;11.90;;;;;;;11.91;74.64;100958.10;105534;1258;73255;-77
2022/10/22 21:01:51;;;;;;;21.10;11.80;;;;;;;11.89;75.10;100958.98;105622;1267;69931;-80
2022/10/22 21:04:20;;;;;;;23.10;11.80;;;;;;;11.85;75.76;100955.05;105590;1263;74101;-82
2022/10/22 21:06:51;;;;;;;21.30;12.60;;;;;;;11.81;76.99;100955.04;105654;1269;59145;-80
2022/10/22 21:09:20;;;;;;;18.20;11.40;;;;;;;11.76;77.29;100950.98;105647;1269;60427;-76
2022/10/22 21:11:52;;;;;;;19.50;11.50;;;;;;;11.76;77.64;100945.23;105662;1261;62554;-77
2022/10/22 21:14:29;;;;;;;24.50;13.50;;;;;;;11.73;79.42;100936.00;105683;1263;73509;-77
2022/10/22 21:16:58;;;;;;;22.60;13.20;;;;;;;11.68;80.02;100925.01;105623;1263;69893;-77
2022/10/22 21:19:27;;;;;;;19.60;12.50;;;;;;;11.66;80.74;100921.50;105619;1265;75230;-82
2022/10/22 21:21:56;;;;;;;20.30;12.40;;;;;;;11.66;78.55;100918.05;105607;1269;58388;-80
2022/10/22 21:24:25;;;;;;;21.50;11.80;;;;;;;11.64;78.32;100922.04;105716;1270;60259;-79
2022/10/22 21:26:54;;;;;;;20.70;12.90;;;;;;;11.62;77.45;100924.59;105593;1265;73330;-79
2022/10/22 21:29:22;;;;;;;18.20;11.40;;;;;;;11.59;75.98;100930.40;105648;1267;71922;-81
2022/10/22 21:31:52;;;;;;;20.50;11.00;;;;;;;11.55;74.48;100927.76;105729;1267;72516;-80
2022/10/22 21:34:21;;;;;;;17.90;12.10;;;;;;;11.46;78.46;100921.41;105711;1264;63491;-81
2022/10/22 21:36:50;;;;;;;17.10;11.70;;;;;;;11.39;80.42;100911.98;105637;1263;63128;-82
2022/10/22 21:39:18;;;;;;;19.60;12.00;;;;;;;11.38;82.05;100906.11;105613;1271;58968;-82
2022/10/22 21:41:47;;;;;;;20.70;12.70;;;;;;;11.33;83.90;100907.02;105535;1271;62152;-80
2022/10/22 21:44:15;;;;;;;24.30;13.80;;;;;;;11.31;85.34;100903.80;105504;1263;71565;-79
2022/10/22 21:46:44;;;;;;;22.30;12.20;;;;;;;11.29;86.63;100916.75;105502;1259;60228;-80
2022/10/22 21:49:13;;;;;;;20.60;13.00;;;;;;;11.29;85.84;100913.92;105432;1262;73830;-75
2022/10/22 21:51:42;;;;;;;21.90;13.20;;;;;;;11.28;86.33;100910.69;105521;1269;62650;-77
2022/10/22 21:54:12;;;;;;;22.40;12.40;;;;;;;11.29;85.94;100910.93;105388;1266;61593;-77
2022/10/22 21:56:40;;;;;;;20.20;12.90;;;;;;;11.25;87.03;100914.40;105333;1266;64586;-77
2022/10/22 21:59:09;;;;;;;18.80;13.20;;;;;;;11.24;87.58;100916.41;105522;1271;62342;-76
2022/10/22 22:01:38;;;;;;;21.10;13.20;;;;;;;11.20;88.21;100911.27;105539;1272;69577;-79
2022/10/22 22:04:06;;;;;;;21.20;13.80;;;;;;;11.19;89.29;100914.81;105457;1263;63020;-76
2022/10/22 22:06:35;;;;;;;22.50;15.60;;;;;;;11.19;90.26;100913.59;105462;1264;57545;-77
2022/10/22 22:09:05;;;;;;;23.40;14.40;;;;;;;11.17;90.20;100913.59;105583;1267;57452;-77
2022/10/22 22:11:33;;;;;;;23.90;14.70;;;;;;;11.18;89.59;100916.48;105618;1263;72313;-78
2022/10/22 22:14:02;;;;;;;20.90;14.30;;;;;;;11.20;89.96;100908.12;105646;1266;63324;-79
2022/10/22 22:16:33;;;;;;;21.80;14.80;;;;;;;11.22;91.34;100905.54;105612;1263;70355;-77
2022/10/22 22:19:06;;;;;;;20.10;14.60;;;;;;;11.23;91.35;100902.17;105507;1273;63495;-77
2022/10/22 22:21:38;;;;;;;22.50;15.40;;;;;;;11.24;91.50;100891.64;105539;1264;63278;-77
2022/10/22 22:24:10;;;;;;;23.10;14.70;;;;;;;11.19;91.88;100884.30;105556;1269;61411;-78
2022/10/22 22:26:39;;;;;;;23.40;15.00;;;;;;;11.23;92.68;100877.41;105346;1266;73254;-80
2022/10/22 22:29:09;;;;;;;21.10;14.50;;;;;;;11.24;91.81;100875.59;105609;1261;61106;-79
2022/10/22 22:31:39;;;;;;;23.60;14.40;;;;;;;11.26;89.07;100865.72;105573;1266;59922;-78
2022/10/22 22:34:12;;;;;;;20.20;13.60;;;;;;;11.24;87.66;100859.55;105547;1271;63534;-79
2022/10/22 22:36:48;;;;;;;21.30;14.30;;;;;;;11.26;86.78;100857.00;105510;1260;62891;-79
2022/10/22 22:39:21;;;;;;;20.90;14.20;;;;;;;11.27;84.98;100858.83;105614;1271;60709;-74
2022/10/22 22:42:07;;;;;;;24.20;14.20;;;;;;;11.25;87.01;100856.51;102070;1305;601363;-75
2022/10/22 22:44:37;;;;;;;24.30;14.80;;;;;;;11.26;87.60;100852.63;105157;1276;61967;-75
2022/10/22 22:47:05;;;;;;;27.00;14.80;;;;;;;11.27;86.53;100862.48;105145;1279;61626;-74
2022/10/22 22:49:35;;;;;;;19.00;12.70;;;;;;;11.24;85.95;100864.92;105190;1269;61134;-77
2022/10/22 22:52:05;;;;;;;21.10;13.60;;;;;;;11.22;82.67;100866.15;105029;1274;61520;-81
2022/10/22 22:54:33;;;;;;;24.80;13.60;;;;;;;11.23;83.25;100864.52;104999;1270;248861;-74
2022/10/22 22:57:02;;;;;;;19.00;13.20;;;;;;;11.24;85.08;100862.16;105382;1278;63583;-80
2022/10/22 22:59:31;;;;;;;23.10;14.50;;;;;;;11.27;85.96;100862.61;105319;1269;59057;-76
2022/10/22 23:01:59;;;;;;;21.20;14.20;;;;;;;11.26;87.72;100860.63;105228;1270;60432;-75
2022/10/22 23:04:29;;;;;;;24.30;15.50;;;;;;;11.27;88.58;100854.98;105323;1269;61206;-76
2022/10/22 23:06:58;;;;;;;20.20;14.50;;;;;;;11.26;88.34;100852.47;105336;1263;72031;-76
2022/10/22 23:09:26;;;;;;;22.60;14.20;;;;;;;11.24;88.33;100851.52;105340;1263;60324;-74
2022/10/22 23:11:55;;;;;;;24.20;14.80;;;;;;;11.24;88.35;100856.81;105279;1270;63180;-78
2022/10/22 23:14:23;;;;;;;21.80;14.10;;;;;;;11.22;87.61;100859.89;105342;1273;62805;-76
2022/10/22 23:16:52;;;;;;;21.50;14.70;;;;;;;11.17;88.00;100858.82;105360;1277;59023;-76
2022/10/22 23:19:22;;;;;;;21.80;14.30;;;;;;;11.20;88.69;100862.33;105353;1273;71824;-74
2022/10/22 23:21:54;;;;;;;21.80;15.20;;;;;;;11.21;88.51;100861.84;105330;1269;72053;-76
2022/10/22 23:24:27;;;;;;;23.90;14.60;;;;;;;11.21;89.80;100862.59;105263;1269;60177;-76
2022/10/22 23:26:59;;;;;;;21.30;15.00;;;;;;;11.21;89.65;100859.94;105311;1263;73025;-76
2022/10/22 23:29:32;;;;;;;23.60;16.50;;;;;;;11.18;89.99;100859.98;105152;1267;58902;-77
2022/10/22 23:32:04;;;;;;;18.50;13.90;;;;;;;11.14;88.64;100856.22;105180;1269;60369;-75
2022/10/22 23:34:32;;;;;;;20.40;14.80;;;;;;;11.13;89.23;100852.52;105392;1263;71894;-75
2022/10/22 23:37:01;;;;;;;20.70;15.10;;;;;;;11.10;89.05;100854.95;105336;1266;61793;-75
2022/10/22 23:39:30;;;;;;;22.40;15.40;;;;;;;11.09;89.09;100852.95;105262;1273;59918;-75
2022/10/22 23:41:59;;;;;;;21.50;15.90;;;;;;;11.09;89.27;100852.63;105341;1269;73773;-78
2022/10/22 23:44:27;;;;;;;27.10;16.40;;;;;;;11.09;88.03;100852.10;105133;1265;58955;-77
2022/10/22 23:46:56;;;;;;;23.10;15.40;;;;;;;11.09;86.86;100847.59;105273;1275;58911;-75
2022/10/22 23:49:25;;;;;;;22.10;15.40;;;;;;;11.09;86.68;100841.29;105292;1278;61345;-76
2022/10/22 23:51:54;;;;;;;22.10;14.80;;;;;;;11.05;87.42;100842.81;105316;1272;72882;-77
2022/10/22 23:54:22;;;;;;;24.60;13.90;;;;;;;11.06;87.50;100842.58;105355;1269;70220;-76
2022/10/22 23:56:51;;;;;;;20.80;14.30;;;;;;;11.08;87.81;100842.78;105312;1270;62968;-77
2022/10/22 23:59:20;;;;;;;22.50;14.40;;;;;;;11.09;86.71;100837.82;105349;1277;57487;-76
